ADDS METAR Data

Data at: 0459 UTC 20 Apr 2018

METAR for:KGNR (Greenville Muni, ME, US)
Text:KGNR 200456Z AUTO 32008KT M01/M01 A2967 RMK AO1 SLP063 P0001 T10061006 400441006
Temperature: -0.6°C ( 31°F)
Dewpoint: -0.6°C ( 31°F) [RH = 100%]
Pressure (altimeter):29.67 inches Hg (1004.8 mb) [Sea level pressure: 1006.3 mb]
Winds:from the NW (320 degrees) at 9 MPH (8 knots; 4.1 m/s)
QC Flag:automated observation with no human augmentation